Time;durP1;ratioP1;P1;durP2;ratioP2;P2;SDS_P1;SDS_P2;PMS_P1;PMS_P2;Temp;Humidity;BMP_temperature;BMP_pressure;BME280_temperature;BME280_humidity;BME280_pressure;Samples;Min_cycle;Max_cycle;Signal;HPM_P1;HPM_P2
2021/07/13 00:01:36;;;;;;;22.88;18.77;;;20.60;94.60;;;;;;5034861;28;20033;-63
2021/07/13 00:04:02;;;;;;;22.73;17.02;;;20.60;94.60;;;;;;5034948;28;20095;-63
2021/07/13 00:06:27;;;;;;;20.63;16.33;;;20.60;94.60;;;;;;5034063;28;20053;-62
2021/07/13 00:08:53;;;;;;;20.83;16.52;;;20.60;94.80;;;;;;5034609;28;20159;-61
2021/07/13 00:11:19;;;;;;;19.67;15.70;;;20.60;94.70;;;;;;5034345;28;20026;-62
2021/07/13 00:13:45;;;;;;;22.08;17.40;;;20.60;94.80;;;;;;5033120;28;20025;-62
2021/07/13 00:16:11;;;;;;;20.35;16.08;;;20.60;94.40;;;;;;5034205;28;20079;-62
2021/07/13 00:18:37;;;;;;;18.35;14.32;;;20.50;94.50;;;;;;5034165;28;20112;-62
2021/07/13 00:21:04;;;;;;;18.05;14.77;;;20.50;94.60;;;;;;5034220;28;20104;-62
2021/07/13 00:23:30;;;;;;;20.35;15.23;;;20.50;94.50;;;;;;5033078;28;20108;-62
2021/07/13 00:25:55;;;;;;;17.85;14.35;;;20.50;94.40;;;;;;5034029;28;20101;-61
2021/07/13 00:28:21;;;;;;;19.67;15.35;;;20.50;94.50;;;;;;5033939;28;20493;-62
2021/07/13 00:30:46;;;;;;;19.23;15.43;;;20.50;94.20;;;;;;5033956;28;20362;-62
2021/07/13 00:33:14;;;;;;;18.83;14.60;;;20.50;93.90;;;;;;5034024;28;20105;-62
2021/07/13 00:35:40;;;;;;;17.70;14.02;;;20.40;94.30;;;;;;5034295;28;20091;-62
2021/07/13 00:38:05;;;;;;;15.80;13.07;;;20.40;94.50;;;;;;5033885;28;20473;-61
2021/07/13 00:40:31;;;;;;;18.98;15.07;;;20.40;94.40;;;;;;5032613;28;20033;-62
2021/07/13 00:42:56;;;;;;;20.10;15.18;;;20.40;94.10;;;;;;5033898;28;20276;-63
2021/07/13 00:45:22;;;;;;;18.88;15.27;;;20.30;93.90;;;;;;5033990;28;20031;-62
2021/07/13 00:47:49;;;;;;;19.67;15.50;;;20.30;94.00;;;;;;5033910;28;20357;-62
2021/07/13 00:50:15;;;;;;;17.92;14.77;;;20.20;94.10;;;;;;5034000;28;20074;-62
2021/07/13 00:52:40;;;;;;;19.35;15.10;;;20.20;94.30;;;;;;5032720;28;20021;-62
2021/07/13 00:55:06;;;;;;;19.30;14.07;;;20.20;94.70;;;;;;5033709;28;20048;-62
2021/07/13 00:57:32;;;;;;;18.42;14.30;;;20.20;95.10;;;;;;5032264;28;20034;-62
2021/07/13 00:59:58;;;;;;;19.05;14.77;;;20.30;95.50;;;;;;5033488;28;20025;-63
2021/07/13 01:02:24;;;;;;;18.52;13.93;;;20.40;95.50;;;;;;5032447;28;20025;-62
2021/07/13 01:04:53;;;;;;;18.48;14.30;;;20.40;95.60;;;;;;5033744;28;20022;-62
2021/07/13 01:07:28;;;;;;;18.88;14.77;;;20.50;95.50;;;;;;5031942;28;20049;-62
2021/07/13 01:10:01;;;;;;;17.42;14.00;;;20.50;95.50;;;;;;5032820;28;20041;-63
2021/07/13 01:12:45;;;;;;;19.30;15.13;;;20.60;95.40;;;;;;5032132;28;20113;-62
2021/07/13 01:15:11;;;;;;;19.05;15.07;;;20.60;95.30;;;;;;5033201;28;20090;-64
2021/07/13 01:17:43;;;;;;;18.17;13.88;;;20.60;95.70;;;;;;5031789;28;20021;-64
2021/07/13 01:33:04;;;;;;;15.57;12.63;;;20.80;95.00;;;;;;5032910;28;20499;-64
2021/07/13 01:35:48;;;;;;;16.17;13.40;;;20.80;95.30;;;;;;5031627;28;20388;-65
2021/07/13 01:38:14;;;;;;;17.15;13.32;;;20.80;95.50;;;;;;5031489;28;20491;-63
2021/07/13 01:40:41;;;;;;;19.13;13.65;;;20.80;95.70;;;;;;5031498;28;20025;-63
2021/07/13 01:43:08;;;;;;;17.10;13.43;;;20.90;95.60;;;;;;5031496;28;20484;-64
2021/07/13 01:45:34;;;;;;;17.95;14.75;;;20.90;95.50;;;;;;5032648;28;20109;-64
2021/07/13 01:47:59;;;;;;;16.90;13.82;;;20.90;95.10;;;;;;5031755;28;20163;-64
2021/07/13 01:50:25;;;;;;;17.63;13.35;;;20.90;95.40;;;;;;5032995;28;20122;-64
2021/07/13 01:52:51;;;;;;;17.83;14.60;;;20.90;95.30;;;;;;5014782;28;20032;-65
2021/07/13 01:55:16;;;;;;;20.20;15.25;;;20.90;95.00;;;;;;5031243;28;20353;-64
2021/07/13 01:57:42;;;;;;;18.08;14.38;;;20.90;95.10;;;;;;5030922;28;20025;-65
2021/07/13 02:00:08;;;;;;;19.45;13.65;;;20.90;95.30;;;;;;5031158;28;20033;-65
2021/07/13 02:02:34;;;;;;;19.65;14.38;;;20.90;95.40;;;;;;5032277;28;20026;-66
2021/07/13 02:05:00;;;;;;;17.02;13.60;;;20.90;95.30;;;;;;5031157;28;20029;-66
2021/07/13 02:07:25;;;;;;;16.90;13.45;;;20.90;95.10;;;;;;5031890;28;20053;-67
2021/07/13 02:09:51;;;;;;;21.63;15.57;;;20.90;95.10;;;;;;5030949;28;20033;-67
2021/07/13 02:12:17;;;;;;;18.17;14.38;;;20.90;95.00;;;;;;5030959;28;20435;-68
2021/07/13 02:14:43;;;;;;;19.17;14.63;;;20.90;95.10;;;;;;5030908;28;20025;-68
2021/07/13 02:17:11;;;;;;;17.42;13.80;;;20.90;95.30;;;;;;5032067;28;20026;-69
2021/07/13 02:19:36;;;;;;;17.02;12.93;;;21.00;95.60;;;;;;5030732;28;20044;-70
2021/07/13 02:22:03;;;;;;;16.48;12.48;;;21.00;95.60;;;;;;5031338;28;20022;-70
2021/07/13 02:24:28;;;;;;;19.58;14.15;;;21.00;95.60;;;;;;5030801;28;20030;-71
2021/07/13 02:27:01;;;;;;;18.80;14.23;;;21.00;95.70;;;;;;5031770;28;20392;-69
2021/07/13 02:29:38;;;;;;;20.02;15.45;;;21.00;95.80;;;;;;5030717;28;20065;-70
2021/07/13 02:32:10;;;;;;;20.13;15.38;;;21.10;95.60;;;;;;5030784;28;20480;-71
2021/07/13 02:34:38;;;;;;;19.65;14.23;;;21.10;95.80;;;;;;5030428;28;20029;-71
2021/07/13 02:37:03;;;;;;;18.42;14.15;;;21.10;95.90;;;;;;5030509;28;20036;-72
2021/07/13 02:39:36;;;;;;;21.95;15.20;;;21.20;96.20;;;;;;5030656;28;20022;-72
2021/07/13 02:42:02;;;;;;;19.15;14.00;;;21.20;96.50;;;;;;5030773;28;20028;-73
2021/07/13 02:44:28;;;;;;;20.75;14.85;;;21.30;96.80;;;;;;5030381;28;20029;-73
2021/07/13 02:46:54;;;;;;;26.45;20.15;;;21.30;97.00;;;;;;5030415;28;20021;-72
2021/07/13 02:49:23;;;;;;;30.27;24.73;;;21.40;96.70;;;;;;5030618;28;20036;-73
2021/07/13 02:51:50;;;;;;;23.30;19.30;;;21.50;97.30;;;;;;5030246;28;20094;-72
2021/07/13 02:54:19;;;;;;;19.92;16.17;;;21.50;97.40;;;;;;5030590;28;20049;-72
2021/07/13 02:56:44;;;;;;;19.83;15.77;;;21.60;97.50;;;;;;5030156;28;20436;-72
2021/07/13 02:59:10;;;;;;;18.30;13.82;;;21.70;96.80;;;;;;5030345;28;20025;-71
2021/07/13 03:01:35;;;;;;;18.05;13.75;;;21.70;96.60;;;;;;5031571;28;20032;-71
2021/07/13 03:04:01;;;;;;;17.95;13.60;;;21.70;96.40;;;;;;5030208;28;20025;-70
2021/07/13 03:06:27;;;;;;;18.63;14.70;;;21.70;96.40;;;;;;5029917;28;20072;-71
2021/07/13 03:08:52;;;;;;;20.02;14.80;;;21.70;96.40;;;;;;5030353;28;20105;-71
2021/07/13 03:11:18;;;;;;;25.75;19.63;;;21.70;96.40;;;;;;5030299;28;20447;-70
2021/07/13 03:13:43;;;;;;;25.80;20.73;;;21.80;96.40;;;;;;5030568;28;20161;-70
2021/07/13 03:16:10;;;;;;;24.92;20.00;;;21.80;96.40;;;;;;5030045;28;20017;-70
2021/07/13 03:18:35;;;;;;;23.05;18.55;;;21.80;96.30;;;;;;5029893;28;20020;-70
2021/07/13 03:21:02;;;;;;;22.02;17.65;;;21.90;96.20;;;;;;5030100;28;20376;-70
2021/07/13 03:23:28;;;;;;;21.65;17.25;;;21.90;96.20;;;;;;5031357;28;20518;-69
2021/07/13 03:25:54;;;;;;;18.73;15.13;;;21.90;96.30;;;;;;5030028;28;20128;-70
2021/07/13 03:28:19;;;;;;;19.50;15.35;;;21.90;96.10;;;;;;5030058;28;20029;-69
2021/07/13 03:30:45;;;;;;;18.23;13.48;;;21.90;96.10;;;;;;5029823;28;20033;-69
2021/07/13 03:33:11;;;;;;;18.45;14.23;;;21.90;96.10;;;;;;5031567;28;20033;-69
2021/07/13 03:35:37;;;;;;;17.20;13.07;;;21.90;96.20;;;;;;5034004;28;20033;-68
2021/07/13 03:38:02;;;;;;;18.20;14.10;;;22.00;96.30;;;;;;5033814;28;20018;-68
2021/07/13 03:40:28;;;;;;;17.70;13.48;;;22.00;96.30;;;;;;5033929;28;20044;-68
2021/07/13 03:42:54;;;;;;;19.27;15.25;;;22.00;96.30;;;;;;5035099;28;20118;-68
2021/07/13 03:45:22;;;;;;;23.00;17.88;;;22.10;96.10;;;;;;5035158;28;20026;-68
2021/07/13 03:47:52;;;;;;;22.25;17.45;;;22.10;96.30;;;;;;5033750;28;20029;-68
2021/07/13 03:50:19;;;;;;;21.15;16.33;;;22.10;96.10;;;;;;5034808;28;20061;-67
2021/07/13 03:52:45;;;;;;;21.30;17.05;;;22.10;96.20;;;;;;5034953;28;20045;-68
2021/07/13 03:55:11;;;;;;;21.27;16.50;;;22.20;96.40;;;;;;5034930;28;20053;-68
2021/07/13 03:57:37;;;;;;;19.33;15.23;;;22.20;96.40;;;;;;5034526;28;20033;-68
2021/07/13 04:00:07;;;;;;;20.17;15.60;;;22.30;96.40;;;;;;5034838;28;20025;-68
2021/07/13 04:02:32;;;;;;;20.58;15.95;;;22.30;96.40;;;;;;5033470;28;20040;-68
2021/07/13 04:04:58;;;;;;;19.20;14.43;;;22.40;96.50;;;;;;5034649;28;20025;-68
2021/07/13 04:07:24;;;;;;;22.98;17.00;;;22.40;96.60;;;;;;5034459;28;20107;-68
2021/07/13 04:09:49;;;;;;;19.30;15.48;;;22.40;96.30;;;;;;5034696;28;20108;-68
2021/07/13 04:12:15;;;;;;;20.15;15.38;;;22.50;96.40;;;;;;5034764;28;20028;-68
2021/07/13 04:14:40;;;;;;;19.35;15.13;;;22.50;96.40;;;;;;5034314;28;20056;-68
2021/07/13 04:17:06;;;;;;;18.67;14.20;;;22.50;96.40;;;;;;5034553;28;20488;-68
2021/07/13 04:19:32;;;;;;;20.13;14.60;;;22.50;96.50;;;;;;5034615;28;20087;-67
2021/07/13 04:21:57;;;;;;;18.30;13.95;;;22.60;96.50;;;;;;5034544;28;20029;-67
2021/07/13 04:24:23;;;;;;;18.23;13.80;;;22.60;96.50;;;;;;5034414;28;20026;-67
2021/07/13 04:26:48;;;;;;;19.25;14.80;;;22.60;96.50;;;;;;5034175;28;20112;-67
2021/07/13 04:29:14;;;;;;;17.85;13.82;;;22.70;96.60;;;;;;5034211;28;20030;-67
2021/07/13 04:31:39;;;;;;;16.75;13.57;;;22.70;96.60;;;;;;5034195;28;20053;-67
2021/07/13 04:34:09;;;;;;;18.33;14.07;;;22.80;96.40;;;;;;5034143;28;20100;-67
2021/07/13 04:36:36;;;;;;;16.85;13.93;;;22.80;96.30;;;;;;5034255;28;20025;-67
2021/07/13 04:39:03;;;;;;;15.93;13.43;;;22.80;96.40;;;;;;5034298;28;20100;-66
2021/07/13 04:41:29;;;;;;;17.50;13.63;;;22.80;96.50;;;;;;5034018;28;20029;-66
2021/07/13 04:43:54;;;;;;;16.40;12.50;;;22.90;96.50;;;;;;5033842;28;20377;-66
2021/07/13 04:46:20;;;;;;;16.17;13.25;;;22.90;96.50;;;;;;5033244;28;20053;-66
2021/07/13 04:48:45;;;;;;;18.67;15.10;;;22.90;96.30;;;;;;5034086;28;20362;-66
2021/07/13 04:51:11;;;;;;;17.20;13.40;;;23.00;96.40;;;;;;5033941;28;20037;-66
2021/07/13 04:53:37;;;;;;;16.98;13.75;;;23.00;96.50;;;;;;5033801;28;20045;-66
2021/07/13 04:56:02;;;;;;;18.17;13.52;;;23.00;96.60;;;;;;5033683;28;20087;-66
2021/07/13 04:58:28;;;;;;;16.83;13.57;;;23.10;96.90;;;;;;5033650;28;20070;-66
2021/07/13 05:00:53;;;;;;;19.77;15.27;;;23.20;97.20;;;;;;5033582;28;20024;-65
2021/07/13 05:03:19;;;;;;;21.42;17.08;;;23.30;96.70;;;;;;5033481;28;20025;-65
2021/07/13 05:05:45;;;;;;;20.67;16.30;;;23.40;96.50;;;;;;5033400;28;20187;-65
2021/07/13 05:08:10;;;;;;;16.52;13.15;;;23.40;96.60;;;;;;5033704;28;20438;-65
2021/07/13 05:10:36;;;;;;;18.30;13.70;;;23.40;97.00;;;;;;5033186;28;20481;-65
2021/07/13 05:13:02;;;;;;;16.83;12.95;;;23.50;97.50;;;;;;5033346;28;20021;-65
2021/07/13 05:15:27;;;;;;;15.93;13.38;;;23.60;97.70;;;;;;5033164;28;20060;-65
2021/07/13 05:17:53;;;;;;;15.00;11.90;;;23.70;97.50;;;;;;5033110;28;20021;-64
2021/07/13 05:20:18;;;;;;;15.85;12.35;;;23.80;97.20;;;;;;5033125;28;20032;-64
2021/07/13 05:22:44;;;;;;;18.33;14.80;;;23.80;96.80;;;;;;5032965;28;20018;-64
2021/07/13 05:25:11;;;;;;;18.23;15.25;;;23.90;96.50;;;;;;5033278;28;20493;-64
2021/07/13 05:27:40;;;;;;;15.95;13.55;;;23.90;96.20;;;;;;5032867;28;20488;-64
2021/07/13 05:30:07;;;;;;;15.48;13.13;;;23.90;96.40;;;;;;5032720;28;20025;-63
2021/07/13 05:32:33;;;;;;;15.73;13.70;;;23.90;96.20;;;;;;5032689;28;20092;-63
2021/07/13 05:34:58;;;;;;;15.30;13.18;;;23.90;96.00;;;;;;5032985;28;20025;-64
2021/07/13 05:37:24;;;;;;;15.80;13.43;;;23.90;96.00;;;;;;5032657;28;20026;-66
2021/07/13 05:39:49;;;;;;;17.00;14.38;;;23.90;95.90;;;;;;5032690;28;20030;-63
2021/07/13 05:42:15;;;;;;;16.17;12.68;;;23.90;95.80;;;;;;5032622;28;20060;-62
2021/07/13 05:44:40;;;;;;;13.88;11.73;;;24.00;96.10;;;;;;5031140;28;20357;-63
2021/07/13 05:47:06;;;;;;;14.32;12.13;;;24.00;96.20;;;;;;5032248;28;20465;-62
2021/07/13 05:49:32;;;;;;;14.95;12.63;;;24.10;96.30;;;;;;5032266;28;20025;-63
2021/07/13 05:51:57;;;;;;;14.35;11.50;;;24.10;96.40;;;;;;5031335;28;20033;-62
2021/07/13 05:54:23;;;;;;;14.38;11.80;;;24.20;96.40;;;;;;5032631;28;20095;-62
2021/07/13 05:56:48;;;;;;;13.93;11.70;;;24.30;96.30;;;;;;5031271;28;20033;-62
2021/07/13 05:59:14;;;;;;;15.38;12.88;;;24.30;96.40;;;;;;5032218;28;20025;-62
2021/07/13 06:01:40;;;;;;;14.77;12.65;;;24.40;96.20;;;;;;5031804;28;20022;-62
2021/07/13 06:04:05;;;;;;;13.82;11.80;;;24.40;96.20;;;;;;5032017;28;20104;-62
2021/07/13 06:06:31;;;;;;;14.70;12.10;;;24.50;96.40;;;;;;5031636;28;20045;-62
2021/07/13 06:08:56;;;;;;;15.75;12.85;;;24.60;96.30;;;;;;5030870;28;20037;-63
2021/07/13 06:11:22;;;;;;;15.25;13.07;;;24.70;96.00;;;;;;5032108;28;20017;-62
2021/07/13 06:13:48;;;;;;;16.10;13.82;;;24.70;96.00;;;;;;5031968;28;20032;-62
2021/07/13 06:16:13;;;;;;;14.63;13.00;;;24.80;96.10;;;;;;5031627;28;20461;-62
2021/07/13 06:18:39;;;;;;;15.70;12.80;;;24.90;96.40;;;;;;5031742;28;20076;-61
2021/07/13 06:21:08;;;;;;;15.95;12.95;;;25.00;96.40;;;;;;5032167;28;20040;-61
2021/07/13 06:23:34;;;;;;;15.00;12.10;;;25.10;96.50;;;;;;5031878;28;20029;-62
2021/07/13 06:26:00;;;;;;;14.93;12.20;;;25.20;96.90;;;;;;5031714;28;20040;-62
2021/07/13 06:28:25;;;;;;;16.42;13.00;;;25.30;97.30;;;;;;5031755;28;20419;-63
2021/07/13 06:30:51;;;;;;;15.23;12.13;;;25.40;97.30;;;;;;5031682;28;20065;-62
2021/07/13 06:33:17;;;;;;;14.60;12.35;;;25.50;97.70;;;;;;5031828;28;20037;-62
2021/07/13 06:35:45;;;;;;;17.40;13.63;;;25.60;97.20;;;;;;5031796;28;20030;-63
2021/07/13 06:38:11;;;;;;;19.23;15.50;;;25.70;96.70;;;;;;5031601;28;20026;-63
2021/07/13 06:40:36;;;;;;;16.10;13.73;;;25.90;96.20;;;;;;5031574;28;20037;-63
2021/07/13 06:43:02;;;;;;;14.82;12.52;;;26.00;96.40;;;;;;5031894;28;20460;-63
2021/07/13 06:45:28;;;;;;;13.75;11.73;;;26.10;96.20;;;;;;5031775;28;20033;-63
2021/07/13 06:47:54;;;;;;;17.02;13.13;;;26.20;96.20;;;;;;5031558;28;20452;-62
2021/07/13 06:50:22;;;;;;;15.75;12.38;;;26.30;95.80;;;;;;5031364;28;20030;-62
2021/07/13 06:52:47;;;;;;;16.83;13.60;;;26.40;95.70;;;;;;5031472;28;20032;-62
2021/07/13 06:55:13;;;;;;;15.93;13.85;;;26.50;95.40;;;;;;5031384;28;20029;-62
2021/07/13 06:57:39;;;;;;;17.65;13.82;;;26.50;95.40;;;;;;5031099;28;20030;-62
2021/07/13 07:00:08;;;;;;;16.52;13.57;;;26.60;95.30;;;;;;5030292;28;20083;-62
2021/07/13 07:02:34;;;;;;;18.42;13.50;;;26.70;95.70;;;;;;5031367;28;20388;-63
2021/07/13 07:04:59;;;;;;;17.10;13.80;;;26.80;95.50;;;;;;5030907;28;20028;-64
2021/07/13 07:07:25;;;;;;;14.57;12.45;;;26.90;95.40;;;;;;5030586;28;20052;-63
2021/07/13 07:09:51;;;;;;;16.38;13.90;;;27.00;95.80;;;;;;5030020;28;20029;-64
2021/07/13 07:12:16;;;;;;;15.90;13.35;;;27.10;95.20;;;;;;5013201;28;20034;-64
2021/07/13 07:14:42;;;;;;;17.23;14.82;;;27.20;95.60;;;;;;5030959;28;20108;-62
2021/07/13 07:17:07;;;;;;;19.45;15.52;;;27.30;95.40;;;;;;5030833;28;20030;-63
2021/07/13 07:19:33;;;;;;;19.30;15.50;;;27.40;95.40;;;;;;5030981;28;20065;-63
2021/07/13 07:21:59;;;;;;;17.70;14.77;;;27.50;95.50;;;;;;5030910;28;20430;-63
2021/07/13 07:24:24;;;;;;;18.88;15.10;;;27.50;95.30;;;;;;5031142;28;20033;-63
2021/07/13 07:26:50;;;;;;;16.83;14.00;;;27.60;95.10;;;;;;5031294;28;20045;-63
2021/07/13 07:29:15;;;;;;;18.13;15.60;;;27.70;95.30;;;;;;5031042;28;20021;-63
2021/07/13 07:31:41;;;;;;;17.75;15.00;;;27.80;95.10;;;;;;5031214;28;20222;-64
2021/07/13 07:34:07;;;;;;;16.75;14.20;;;27.80;94.90;;;;;;5031039;28;20124;-63
2021/07/13 07:36:32;;;;;;;18.15;15.40;;;27.80;94.60;;;;;;5030748;28;20025;-63
2021/07/13 07:38:58;;;;;;;17.52;14.52;;;27.80;94.50;;;;;;5030716;28;20061;-63
2021/07/13 07:41:24;;;;;;;17.92;15.02;;;27.80;94.70;;;;;;5030495;28;20061;-63
2021/07/13 07:43:49;;;;;;;17.45;14.82;;;27.90;94.70;;;;;;5030576;28;20024;-62
2021/07/13 07:46:15;;;;;;;20.13;16.92;;;27.90;94.30;;;;;;5029454;28;20022;-63
2021/07/13 07:48:41;;;;;;;18.63;16.02;;;28.00;94.40;;;;;;5030889;28;20022;-64
2021/07/13 07:51:07;;;;;;;22.27;17.70;;;28.00;94.50;;;;;;5030564;28;20063;-63
2021/07/13 07:53:32;;;;;;;20.55;17.10;;;28.10;94.30;;;;;;5029463;28;20044;-64
2021/07/13 07:55:58;;;;;;;19.92;16.33;;;28.20;95.00;;;;;;5030550;28;20196;-63
2021/07/13 07:58:24;;;;;;;21.52;17.05;;;28.30;96.00;;;;;;5030744;28;20033;-63
2021/07/13 08:00:49;;;;;;;23.70;18.92;;;28.40;97.50;;;;;;5030214;28;20072;-63
2021/07/13 08:03:15;;;;;;;23.33;18.02;;;28.60;99.90;;;;;;5030587;28;20021;-65
2021/07/13 08:05:42;;;;;;;25.80;19.23;;;28.90;99.90;;;;;;5030405;28;20068;-64
2021/07/13 08:08:08;;;;;;;28.38;21.25;;;29.10;99.90;;;;;;5029530;28;20392;-64
2021/07/13 08:10:34;;;;;;;27.75;20.40;;;29.40;99.90;;;;;;5029321;28;20033;-64
2021/07/13 08:13:00;;;;;;;29.58;20.88;;;29.60;99.90;;;;;;5030953;28;20036;-65
2021/07/13 08:15:26;;;;;;;30.65;23.38;;;29.90;99.90;;;;;;5029564;28;20025;-64
2021/07/13 08:17:52;;;;;;;31.52;23.02;;;30.10;99.90;;;;;;5029612;28;20503;-64
2021/07/13 08:20:18;;;;;;;27.92;20.77;;;30.30;99.90;;;;;;5032028;28;20029;-64
2021/07/13 08:22:46;;;;;;;36.25;25.58;;;30.40;99.90;;;;;;5033958;28;20017;-64
2021/07/13 08:25:12;;;;;;;29.65;22.08;;;30.60;99.90;;;;;;5034096;28;20354;-64
2021/07/13 08:27:37;;;;;;;29.73;22.50;;;30.70;99.90;;;;;;5032837;28;20041;-63
2021/07/13 08:30:04;;;;;;;27.67;22.67;;;31.00;99.90;;;;;;5032753;28;20028;-64
2021/07/13 08:32:30;;;;;;;26.42;21.50;;;31.20;99.90;;;;;;5034062;28;20053;-64
2021/07/13 08:34:56;;;;;;;26.98;21.75;;;31.50;99.90;;;;;;5033912;28;20057;-63
2021/07/13 08:37:21;;;;;;;24.20;20.20;;;31.70;99.90;;;;;;5032668;28;20051;-63
2021/07/13 08:39:48;;;;;;;21.65;18.92;;;31.90;99.90;;;;;;5033787;28;20029;-64
2021/07/13 08:42:14;;;;;;;22.60;19.75;;;32.20;99.90;;;;;;5033529;28;20030;-64
2021/07/13 08:44:40;;;;;;;23.75;21.08;;;32.40;99.90;;;;;;5033641;28;20028;-64
2021/07/13 08:47:05;;;;;;;23.15;19.38;;;32.50;99.90;;;;;;5032201;28;20021;-64
2021/07/13 08:49:31;;;;;;;21.23;19.02;;;32.80;99.90;;;;;;5033466;28;20040;-64
2021/07/13 08:51:56;;;;;;;21.27;18.38;;;33.00;99.90;;;;;;5033604;28;20048;-64
2021/07/13 08:54:22;;;;;;;20.02;17.92;;;33.10;99.90;;;;;;5033506;28;20381;-64
2021/07/13 08:56:48;;;;;;;19.13;17.13;;;33.40;99.90;;;;;;5032294;28;20038;-64
2021/07/13 08:59:13;;;;;;;22.00;19.70;;;33.60;99.90;;;;;;5033690;28;20075;-64
2021/07/13 09:01:39;;;;;;;24.55;22.05;;;33.90;99.90;;;;;;5033355;28;20025;-64
2021/07/13 09:04:05;;;;;;;19.85;17.88;;;34.10;96.60;;;;;;5033576;28;20453;-64
2021/07/13 09:06:56;;;;;;;20.30;18.20;;;34.20;96.30;;;;;;5033025;28;20044;-64
2021/07/13 09:09:29;;;;;;;21.52;19.23;;;34.40;93.80;;;;;;5033412;28;20477;-64
2021/07/13 09:12:15;;;;;;;19.45;17.52;;;34.50;94.90;;;;;;5033439;28;20412;-64
2021/07/13 09:15:07;;;;;;;20.08;18.08;;;34.80;94.40;;;;;;5033133;28;20026;-64
2021/07/13 09:17:39;;;;;;;18.55;16.65;;;34.90;91.30;;;;;;5031865;28;20048;-63
2021/07/13 09:20:12;;;;;;;20.35;18.33;;;35.00;94.70;;;;;;5032933;28;20108;-63
2021/07/13 09:22:59;;;;;;;18.38;16.58;;;35.30;89.30;;;;;;5033421;28;20068;-64
2021/07/13 09:25:35;;;;;;;19.15;17.25;;;35.30;91.90;;;;;;5032847;28;20037;-64
2021/07/13 09:28:19;;;;;;;18.73;16.75;;;35.50;81.00;;;;;;5032805;28;20028;-64
2021/07/13 09:30:47;;;;;;;18.40;16.48;;;35.80;86.40;;;;;;5031329;28;20056;-63
2021/07/13 09:33:27;;;;;;;17.67;15.88;;;36.00;89.00;;;;;;5031529;28;20110;-63
2021/07/13 09:36:07;;;;;;;16.85;15.25;;;36.10;88.20;;;;;;5032731;28;20033;-64
2021/07/13 09:38:36;;;;;;;16.30;14.67;;;36.20;88.10;;;;;;5032778;28;20083;-64
2021/07/13 09:41:09;;;;;;;16.20;14.57;;;36.30;88.00;;;;;;5032563;28;20499;-63
2021/07/13 09:43:39;;;;;;;16.02;14.52;;;36.40;90.10;;;;;;5031519;28;20487;-63
2021/07/13 09:46:21;;;;;;;16.48;14.70;;;36.70;90.10;;;;;;5031724;28;20280;-64
2021/07/13 09:49:15;;;;;;;17.27;15.57;;;36.90;78.70;;;;;;5032721;28;20119;-64
2021/07/13 09:51:43;;;;;;;15.45;13.98;;;37.30;82.60;;;;;;5031539;28;20037;-64
2021/07/13 09:54:29;;;;;;;14.82;13.32;;;37.40;87.20;;;;;;5032496;28;20022;-64
2021/07/13 09:56:54;;;;;;;14.75;13.35;;;37.70;79.60;;;;;;5032203;28;20384;-63
2021/07/13 09:59:20;;;;;;;14.60;13.20;;;37.80;84.50;;;;;;5030919;28;20041;-64
2021/07/13 10:01:46;;;;;;;13.65;12.35;;;37.90;83.20;;;;;;5031872;28;20031;-64
2021/07/13 10:04:11;;;;;;;14.25;12.93;;;38.00;82.40;;;;;;5032167;28;20021;-64
2021/07/13 10:06:37;;;;;;;13.35;11.98;;;38.20;81.40;;;;;;5031840;28;20176;-64
2021/07/13 10:09:07;;;;;;;13.70;12.30;;;38.40;79.50;;;;;;5030994;28;20399;-64
2021/07/13 10:11:33;;;;;;;16.13;14.52;;;38.50;78.50;;;;;;5030688;28;20429;-64
2021/07/13 10:13:59;;;;;;;14.00;12.63;;;38.70;75.90;;;;;;5030913;28;20079;-65
2021/07/13 10:16:25;;;;;;;13.57;12.25;;;38.80;74.80;;;;;;5030831;28;20028;-64
2021/07/13 10:18:50;;;;;;;14.35;12.93;;;39.00;73.70;;;;;;5030535;28;20029;-63
2021/07/13 10:21:16;;;;;;;13.77;12.40;;;39.20;71.60;;;;;;5031936;28;20029;-63
2021/07/13 10:23:43;;;;;;;14.05;12.68;;;39.40;71.50;;;;;;5030966;28;20123;-66
2021/07/13 10:26:11;;;;;;;13.52;12.27;;;39.50;67.60;;;;;;5030343;28;20104;-63
2021/07/13 10:28:36;;;;;;;12.93;11.65;;;39.60;65.50;;;;;;5030579;28;20107;-63
2021/07/13 10:31:02;;;;;;;12.57;11.38;;;39.70;65.40;;;;;;5030399;28;20472;-64
2021/07/13 10:33:29;;;;;;;13.25;12.00;;;39.80;64.50;;;;;;5031804;28;20033;-65
2021/07/13 10:35:56;;;;;;;13.98;12.57;;;40.00;60.50;;;;;;5031608;28;20552;-64
2021/07/13 10:38:23;;;;;;;11.80;10.65;;;40.20;58.30;;;;;;5031739;28;20110;-63
2021/07/13 10:40:50;;;;;;;12.43;11.23;;;40.20;58.90;;;;;;5031014;28;20116;-64
2021/07/13 10:43:16;;;;;;;10.93;9.82;;;40.30;56.90;;;;;;5029813;28;20047;-63
2021/07/13 10:45:42;;;;;;;10.85;9.15;;;40.40;58.00;;;;;;5031461;28;20520;-64
2021/07/13 10:48:18;;;;;;;11.35;10.25;;;40.60;56.90;;;;;;5030119;28;20025;-64
2021/07/13 10:50:46;;;;;;;10.85;9.73;;;40.80;55.40;;;;;;5031469;28;20362;-64
2021/07/13 10:53:28;;;;;;;11.63;10.43;;;40.90;56.80;;;;;;5031423;28;20558;-64
2021/07/13 10:56:03;;;;;;;10.18;9.18;;;41.30;53.40;;;;;;5031376;28;20060;-64
2021/07/13 10:58:35;;;;;;;10.32;9.32;;;41.30;53.70;;;;;;5031214;28;20026;-64
2021/07/13 11:01:30;;;;;;;10.40;8.73;;;41.60;51.40;;;;;;5031424;28;20029;-64
2021/07/13 11:04:00;;;;;;;8.85;7.95;;;41.60;50.00;;;;;;5022965;28;20029;-64
2021/07/13 11:06:53;;;;;;;8.63;7.72;;;41.80;52.90;;;;;;5031220;28;20401;-64
2021/07/13 11:09:21;;;;;;;8.27;7.35;;;42.00;47.80;;;;;;5029995;28;20430;-64
2021/07/13 11:11:47;;;;;;;7.40;6.70;;;42.20;50.60;;;;;;5030026;28;20056;-64
2021/07/13 11:14:14;;;;;;;6.93;6.22;;;42.40;50.30;;;;;;5030373;28;20175;-64
2021/07/13 11:16:40;;;;;;;6.25;5.60;;;42.60;49.50;;;;;;5030902;28;20061;-64
2021/07/13 11:19:15;;;;;;;6.20;5.40;;;42.70;48.70;;;;;;5029725;28;20022;-64
2021/07/13 11:21:52;;;;;;;6.75;5.35;;;42.80;47.40;;;;;;5030929;28;20029;-64
2021/07/13 11:24:20;;;;;;;6.68;4.72;;;42.90;41.80;;;;;;5063041;28;20033;-64
2021/07/13 11:26:49;;;;;;;4.90;3.90;;;42.90;45.80;;;;;;5030904;28;20061;-64
2021/07/13 11:29:29;;;;;;;5.45;4.50;;;43.00;45.30;;;;;;5031156;28;20499;-64
2021/07/13 11:31:59;;;;;;;5.20;4.20;;;43.20;44.60;;;;;;5031057;28;20044;-64
2021/07/13 11:34:26;;;;;;;5.80;4.45;;;43.30;44.50;;;;;;5031104;28;20025;-64
2021/07/13 11:36:55;;;;;;;5.43;4.18;;;43.40;44.10;;;;;;5046007;28;20037;-64
2021/07/13 11:39:22;;;;;;;7.15;4.40;;;43.60;43.20;;;;;;5062918;28;20027;-64
2021/07/13 11:41:49;;;;;;;5.40;4.30;;;43.60;43.20;;;;;;5062594;28;20553;-64
2021/07/13 11:44:15;;;;;;;5.50;4.35;;;43.80;43.00;;;;;;5062664;28;20484;-65
2021/07/13 11:46:42;;;;;;;5.53;4.50;;;43.90;42.80;;;;;;5062822;28;20022;-64
2021/07/13 11:49:32;;;;;;;5.70;5.10;;;44.00;42.40;;;;;;5063116;28;20033;-64
2021/07/13 11:51:59;;;;;;;5.75;4.60;;;44.20;40.90;;;;;;5031028;28;20041;-64
2021/07/13 11:54:35;;;;;;;6.03;4.70;;;44.10;41.70;;;;;;5063135;28;20057;-64
2021/07/13 11:57:03;;;;;;;5.38;4.50;;;44.10;40.00;;;;;;5034573;28;20024;-64
2021/07/13 11:59:29;;;;;;;6.18;4.20;;;44.30;41.20;;;;;;5066175;28;20037;-64
2021/07/13 12:02:03;;;;;;;6.80;5.10;;;44.40;41.10;;;;;;5016576;28;20488;-65
2021/07/13 12:04:30;;;;;;;5.60;4.43;;;44.50;40.90;;;;;;5033661;28;20397;-64
2021/07/13 12:07:00;;;;;;;10.80;5.78;;;44.60;40.60;;;;;;5034590;28;20120;-64
2021/07/13 12:09:32;;;;;;;6.63;5.07;;;44.80;40.30;;;;;;5033489;28;20039;-64
2021/07/13 12:12:03;;;;;;;6.22;5.38;;;44.80;40.20;;;;;;5033341;28;20388;-64
2021/07/13 12:14:28;;;;;;;6.13;5.10;;;44.90;40.00;;;;;;5034531;28;20029;-64
2021/07/13 12:16:57;;;;;;;5.88;4.97;;;45.00;39.90;;;;;;5034349;28;20027;-65
2021/07/13 12:19:23;;;;;;;5.95;5.30;;;45.10;40.20;;;;;;5034546;28;20017;-65
2021/07/13 12:21:53;;;;;;;6.45;5.32;;;45.30;40.20;;;;;;5033392;28;20409;-64
2021/07/13 12:24:21;;;;;;;6.43;5.60;;;45.50;40.20;;;;;;5033162;28;20143;-63
2021/07/13 12:26:53;;;;;;;6.60;5.82;;;45.60;40.00;;;;;;5032766;28;20022;-63
2021/07/13 12:29:23;;;;;;;7.28;6.00;;;45.70;39.60;;;;;;5032963;28;20548;-64
2021/07/13 12:31:48;;;;;;;6.70;5.88;;;45.90;39.70;;;;;;5034198;28;20032;-64
2021/07/13 12:34:28;;;;;;;5.90;4.93;;;46.00;39.40;;;;;;5033852;28;20029;-64
2021/07/13 12:37:13;;;;;;;6.85;5.10;;;46.30;38.90;;;;;;5032611;28;20464;-63
2021/07/13 12:39:41;;;;;;;7.57;5.40;;;46.40;37.30;;;;;;5033757;28;20116;-63
2021/07/13 12:42:16;;;;;;;6.70;4.82;;;46.40;38.40;;;;;;5031518;28;20021;-64
2021/07/13 12:44:50;;;;;;;5.75;4.22;;;46.50;38.10;;;;;;5033737;28;20044;-63
2021/07/13 12:47:16;;;;;;;5.45;3.92;;;46.60;37.70;;;;;;5033637;28;20017;-65